Time;durP1;ratioP1;P1;durP2;ratioP2;P2;SDS_P1;SDS_P2;PMS_P1;PMS_P2;Temp;Humidity;BMP_temperature;BMP_pressure;BME280_temperature;BME280_humidity;BME280_pressure;Samples;Min_cycle;Max_cycle;Signal;HPM_P1;HPM_P2
2022/05/19 00:01:49;;;;;;;1.70;1.60;;;21.00;21.20;;;;;;10354761;28;20234;-74
2022/05/19 00:06:52;;;;;;;1.67;1.57;;;20.90;21.20;;;;;;10352724;28;20241;-74
2022/05/19 00:11:59;;;;;;;1.60;1.50;;;20.80;21.20;;;;;;10352759;28;20238;-74
2022/05/19 00:17:03;;;;;;;2.67;1.53;;;20.70;21.30;;;;;;10351753;28;20237;-74
2022/05/19 00:22:07;;;;;;;1.37;1.37;;;20.60;21.30;;;;;;10352939;28;20242;-74
2022/05/19 00:27:10;;;;;;;1.50;1.40;;;20.60;21.40;;;;;;10352812;28;20231;-74
2022/05/19 00:32:14;;;;;;;1.73;1.37;;;20.50;21.40;;;;;;10349730;28;20227;-74
2022/05/19 00:37:18;;;;;;;1.63;1.40;;;20.50;21.60;;;;;;10353339;28;20241;-74
2022/05/19 00:47:44;;;;;;;1.73;1.63;;;20.40;21.60;;;;;;10346641;28;20234;-74
2022/05/19 00:52:48;;;;;;;1.50;1.40;;;20.40;21.80;;;;;;10352363;28;20223;-74
2022/05/19 00:57:59;;;;;;;3.00;1.60;;;20.30;21.80;;;;;;10350759;28;20218;-74
2022/05/19 01:03:05;;;;;;;1.50;1.40;;;20.20;21.60;;;;;;10349705;28;20215;-74
2022/05/19 01:08:14;;;;;;;2.40;1.40;;;20.10;21.70;;;;;;10348771;28;20218;-74
2022/05/19 01:13:17;;;;;;;1.77;1.40;;;20.00;21.70;;;;;;10349003;28;20230;-74
2022/05/19 01:18:24;;;;;;;1.47;1.37;;;20.00;21.90;;;;;;10351258;28;20245;-74
2022/05/19 01:23:37;;;;;;;1.90;1.60;;;19.90;22.00;;;;;;10349982;28;20226;-74
2022/05/19 01:28:44;;;;;;;1.97;1.60;;;19.80;22.00;;;;;;10350219;28;20241;-74
2022/05/19 01:33:50;;;;;;;2.80;1.60;;;19.80;22.00;;;;;;10349384;28;20714;-74
2022/05/19 01:39:00;;;;;;;1.50;1.40;;;19.80;22.10;;;;;;10348004;28;20241;-74
2022/05/19 01:44:18;;;;;;;1.40;1.30;;;19.70;22.90;;;;;;10351017;28;20238;-74
2022/05/19 01:49:28;;;;;;;2.00;1.47;;;19.60;22.30;;;;;;10347674;28;21222;-74
2022/05/19 01:54:38;;;;;;;1.40;1.20;;;19.60;22.80;;;;;;10343193;28;20234;-74
2022/05/19 01:59:50;;;;;;;2.13;1.40;;;19.50;22.60;;;;;;10351523;28;20222;-74
2022/05/19 02:04:57;;;;;;;1.50;1.40;;;19.40;22.70;;;;;;10356162;28;20715;-74
2022/05/19 02:10:06;;;;;;;1.83;1.70;;;19.40;22.90;;;;;;10358359;28;20226;-74
2022/05/19 02:15:16;;;;;;;1.70;1.47;;;19.30;22.90;;;;;;10356806;28;20230;-74
2022/05/19 02:20:23;;;;;;;1.90;1.70;;;19.10;23.00;;;;;;10356085;28;20237;-74
2022/05/19 02:25:28;;;;;;;1.70;1.60;;;18.90;23.00;;;;;;10355282;28;20234;-74
2022/05/19 02:30:35;;;;;;;1.70;1.60;;;18.70;23.30;;;;;;10354115;28;20250;-74
2022/05/19 02:35:38;;;;;;;3.07;1.80;;;18.60;23.50;;;;;;10356628;28;20230;-74
2022/05/19 02:40:42;;;;;;;2.10;1.43;;;18.50;23.40;;;;;;10356947;28;20238;-74
2022/05/19 02:45:47;;;;;;;1.73;1.63;;;18.50;23.50;;;;;;10355304;28;20242;-74
2022/05/19 02:50:51;;;;;;;1.43;1.33;;;18.50;23.90;;;;;;10355666;28;20234;-74
2022/05/19 02:55:54;;;;;;;1.30;1.20;;;18.50;23.80;;;;;;10355666;28;20238;-74
2022/05/19 03:00:59;;;;;;;1.60;1.50;;;18.50;23.80;;;;;;10356225;28;20238;-74
2022/05/19 03:06:02;;;;;;;1.70;1.60;;;18.40;24.20;;;;;;10351750;28;20226;-74
2022/05/19 03:11:05;;;;;;;1.40;1.30;;;18.40;24.20;;;;;;10355894;28;20246;-74
2022/05/19 03:16:10;;;;;;;3.27;1.80;;;18.30;24.20;;;;;;10353521;28;20238;-74
2022/05/19 03:21:13;;;;;;;1.90;1.70;;;18.20;24.10;;;;;;10355062;28;20785;-74
2022/05/19 03:26:16;;;;;;;1.70;1.60;;;18.10;24.00;;;;;;10351415;28;20234;-74
2022/05/19 03:31:21;;;;;;;1.60;1.50;;;18.00;24.00;;;;;;10352766;28;20239;-74
2022/05/19 03:36:24;;;;;;;1.67;1.57;;;18.00;24.00;;;;;;10351033;28;20238;-73
2022/05/19 03:41:27;;;;;;;1.87;1.50;;;17.90;23.90;;;;;;10353668;28;20226;-74
2022/05/19 03:46:31;;;;;;;2.93;1.73;;;17.80;23.90;;;;;;10349724;28;20237;-74
2022/05/19 03:51:36;;;;;;;1.60;1.43;;;17.70;24.10;;;;;;10354007;28;20229;-74
2022/05/19 03:56:39;;;;;;;1.87;1.50;;;17.70;24.10;;;;;;10350177;28;20718;-74
2022/05/19 04:01:44;;;;;;;2.37;1.83;;;17.60;24.10;;;;;;10352424;28;20234;-74
2022/05/19 04:06:48;;;;;;;1.80;1.67;;;17.50;24.40;;;;;;10350385;28;20234;-74
2022/05/19 04:11:51;;;;;;;1.77;1.57;;;17.50;24.40;;;;;;10352173;28;20223;-74
2022/05/19 04:16:55;;;;;;;1.60;1.50;;;17.40;25.00;;;;;;10347659;28;20223;-74
2022/05/19 04:21:59;;;;;;;2.47;1.60;;;17.40;24.70;;;;;;10348876;28;20229;-74
2022/05/19 04:27:03;;;;;;;3.03;1.83;;;17.40;24.60;;;;;;10349868;28;20227;-74
2022/05/19 04:32:08;;;;;;;2.37;1.80;;;17.30;24.80;;;;;;10350247;28;20245;-74
2022/05/19 04:37:12;;;;;;;2.00;1.90;;;17.40;25.20;;;;;;10349720;28;20237;-74
2022/05/19 04:42:16;;;;;;;1.80;1.70;;;17.30;24.70;;;;;;10351304;28;20226;-74
2022/05/19 04:47:20;;;;;;;2.10;1.90;;;17.30;24.90;;;;;;10347239;28;20230;-74
2022/05/19 04:52:24;;;;;;;2.73;1.83;;;17.20;25.10;;;;;;10349282;28;20237;-74
2022/05/19 04:57:27;;;;;;;1.90;1.80;;;17.20;25.00;;;;;;10348207;28;20222;-73
2022/05/19 05:02:31;;;;;;;2.10;1.90;;;17.20;25.30;;;;;;10344925;28;20242;-73
2022/05/19 05:07:36;;;;;;;4.33;2.30;;;17.20;25.70;;;;;;10347752;28;20230;-74
2022/05/19 05:12:39;;;;;;;1.97;1.87;;;17.20;25.60;;;;;;10344560;28;20317;-74
2022/05/19 05:17:43;;;;;;;1.70;1.60;;;17.20;25.70;;;;;;10343148;28;20758;-74
2022/05/19 05:22:47;;;;;;;2.87;1.83;;;17.20;25.90;;;;;;10344474;28;20226;-74
2022/05/19 05:27:50;;;;;;;2.00;1.63;;;17.20;25.70;;;;;;10359435;28;20230;-73
2022/05/19 05:32:54;;;;;;;2.43;1.70;;;17.30;25.50;;;;;;10353554;28;20230;-73
2022/05/19 05:37:57;;;;;;;2.03;1.53;;;17.40;25.60;;;;;;10361637;28;20720;-74
2022/05/19 05:43:06;;;;;;;1.93;1.60;;;17.50;25.40;;;;;;10372141;28;20229;-74
2022/05/19 05:48:11;;;;;;;2.53;2.13;;;17.70;25.60;;;;;;10370079;28;20227;-73
2022/05/19 05:53:14;;;;;;;2.23;2.00;;;17.90;25.50;;;;;;10368016;28;20813;-74
2022/05/19 05:58:17;;;;;;;2.53;1.50;;;18.00;25.50;;;;;;10363955;28;20225;-74
2022/05/19 06:03:22;;;;;;;1.70;1.57;;;18.10;25.00;;;;;;10369031;28;20721;-73
2022/05/19 06:08:25;;;;;;;1.70;1.60;;;18.30;25.10;;;;;;10369642;28;20924;-74
2022/05/19 06:13:29;;;;;;;3.17;1.60;;;18.50;25.00;;;;;;10367182;28;20226;-74
2022/05/19 06:18:33;;;;;;;4.60;1.53;;;18.60;24.80;;;;;;10369951;28;20976;-73
2022/05/19 06:23:37;;;;;;;1.70;1.60;;;18.70;25.00;;;;;;10363705;28;20229;-74
2022/05/19 06:28:40;;;;;;;1.43;1.33;;;18.90;24.60;;;;;;10366226;28;20233;-73
2022/05/19 06:33:44;;;;;;;1.53;1.43;;;19.10;24.70;;;;;;10369812;28;20242;-74
2022/05/19 06:38:47;;;;;;;3.93;1.50;;;19.20;24.80;;;;;;10366616;28;20237;-73
2022/05/19 06:43:51;;;;;;;2.03;1.50;;;19.30;24.80;;;;;;10370024;28;20226;-73
2022/05/19 06:48:55;;;;;;;1.87;1.50;;;19.50;25.00;;;;;;10359379;28;20223;-73
2022/05/19 06:53:58;;;;;;;1.57;1.47;;;19.60;25.00;;;;;;10361434;28;20256;-73
2022/05/19 06:59:01;;;;;;;1.73;1.63;;;19.80;25.20;;;;;;10362687;28;20789;-73
2022/05/19 07:04:07;;;;;;;1.87;1.40;;;20.00;25.30;;;;;;10369998;28;20225;-73
2022/05/19 07:09:09;;;;;;;1.50;1.40;;;20.20;25.10;;;;;;10362058;28;21365;-73
2022/05/19 07:14:12;;;;;;;2.27;1.40;;;20.40;25.50;;;;;;10359044;28;20602;-73
2022/05/19 07:24:37;;;;;;;2.10;1.90;;;20.70;25.10;;;;;;10361386;28;20718;-73
2022/05/19 07:29:41;;;;;;;1.83;1.73;;;20.90;25.20;;;;;;10360928;28;20222;-73
2022/05/19 07:34:46;;;;;;;1.50;1.40;;;21.20;25.20;;;;;;10358720;28;20234;-73
2022/05/19 07:39:49;;;;;;;4.07;2.00;;;21.30;25.00;;;;;;10360759;28;20249;-73
2022/05/19 07:44:52;;;;;;;1.90;1.73;;;21.60;25.40;;;;;;10363190;28;20226;-74
2022/05/19 07:49:57;;;;;;;2.10;1.90;;;21.80;25.20;;;;;;10366058;28;20237;-73
2022/05/19 07:55:04;;;;;;;2.23;1.90;;;22.00;25.70;;;;;;10360791;28;20228;-73
2022/05/19 08:00:08;;;;;;;2.33;2.07;;;22.20;25.40;;;;;;10364095;28;20230;-73
2022/05/19 08:05:13;;;;;;;2.23;2.03;;;22.40;25.30;;;;;;10360203;28;20230;-73
2022/05/19 08:10:23;;;;;;;2.47;1.97;;;22.60;25.40;;;;;;10359156;28;20222;-73
2022/05/19 08:15:36;;;;;;;2.00;1.90;;;22.90;25.20;;;;;;10362432;28;20279;-73
2022/05/19 08:20:43;;;;;;;3.67;1.90;;;23.10;25.40;;;;;;10353406;28;20226;-73
2022/05/19 08:25:47;;;;;;;2.23;2.07;;;23.30;25.10;;;;;;10361949;28;20235;-71
2022/05/19 08:30:52;;;;;;;3.47;2.10;;;23.60;25.50;;;;;;10357117;28;20238;-73
2022/05/19 08:35:57;;;;;;;2.10;2.00;;;23.80;25.00;;;;;;10358474;28;20246;-73
2022/05/19 08:41:04;;;;;;;4.00;2.30;;;24.10;25.30;;;;;;10357580;28;20238;-73
2022/05/19 08:46:07;;;;;;;3.53;2.50;;;24.30;24.90;;;;;;10364349;28;20237;-73
2022/05/19 08:51:13;;;;;;;2.77;2.43;;;24.50;24.90;;;;;;10358041;28;20223;-73
2022/05/19 08:56:25;;;;;;;2.03;1.93;;;24.70;25.00;;;;;;10352652;28;20233;-73
2022/05/19 09:01:35;;;;;;;2.03;1.93;;;24.90;24.80;;;;;;10358871;28;20236;-73
2022/05/19 09:12:16;;;;;;;3.30;2.20;;;25.20;24.60;;;;;;10357241;28;20252;-73
2022/05/19 09:17:25;;;;;;;2.27;2.17;;;25.50;24.60;;;;;;10356947;28;20747;-73
2022/05/19 09:22:33;;;;;;;2.30;2.20;;;25.90;24.40;;;;;;10357592;28;20257;-73
2022/05/19 09:27:39;;;;;;;2.30;2.20;;;26.10;24.50;;;;;;10357588;28;20598;-73
2022/05/19 09:32:52;;;;;;;2.50;2.27;;;26.40;24.20;;;;;;10360817;28;20246;-73
2022/05/19 09:38:07;;;;;;;2.23;2.13;;;26.70;23.90;;;;;;10360891;28;20613;-73
2022/05/19 09:43:17;;;;;;;2.50;2.20;;;27.00;23.60;;;;;;10356555;28;20221;-73
2022/05/19 09:48:25;;;;;;;2.67;2.47;;;27.20;23.70;;;;;;10358442;28;20226;-73
2022/05/19 09:53:31;;;;;;;3.33;2.20;;;27.40;23.50;;;;;;10354166;28;20230;-74
2022/05/19 09:58:39;;;;;;;2.73;2.47;;;27.60;23.60;;;;;;10359777;28;20218;-73
2022/05/19 10:03:46;;;;;;;2.20;1.90;;;27.80;23.00;;;;;;10359989;28;20237;-73
2022/05/19 10:09:00;;;;;;;2.43;2.23;;;27.90;23.20;;;;;;10360914;28;20241;-73
2022/05/19 10:14:08;;;;;;;3.50;2.17;;;28.10;22.60;;;;;;10355038;28;20229;-73
2022/05/19 10:19:23;;;;;;;2.70;2.27;;;28.20;22.50;;;;;;10356471;28;20317;-73
2022/05/19 10:24:41;;;;;;;2.57;2.27;;;28.30;22.90;;;;;;10363907;28;20230;-73
2022/05/19 10:35:21;;;;;;;2.47;2.27;;;28.70;23.10;;;;;;10362492;28;20986;-73
2022/05/19 10:40:38;;;;;;;2.90;2.57;;;28.80;22.60;;;;;;10362159;28;20237;-73
2022/05/19 10:45:46;;;;;;;3.67;2.63;;;28.90;22.50;;;;;;10355815;28;20619;-75
2022/05/19 10:50:56;;;;;;;2.67;2.50;;;29.00;22.40;;;;;;10343688;28;20269;-74
2022/05/19 10:56:20;;;;;;;2.90;2.70;;;29.10;21.60;;;;;;10347074;28;20238;-73
2022/05/19 11:01:35;;;;;;;2.70;2.50;;;29.20;21.70;;;;;;10349868;28;20222;-73
2022/05/19 11:06:53;;;;;;;2.50;2.30;;;29.30;21.80;;;;;;10347566;28;20699;-74
2022/05/19 11:12:07;;;;;;;3.10;2.80;;;29.50;21.90;;;;;;10338910;28;20313;-74
2022/05/19 11:17:17;;;;;;;2.77;2.57;;;29.60;21.60;;;;;;10345358;28;20318;-75
2022/05/19 11:22:26;;;;;;;3.73;2.37;;;29.70;21.40;;;;;;10339700;28;20233;-75
2022/05/19 11:27:35;;;;;;;3.20;2.60;;;29.80;21.70;;;;;;10338274;28;20231;-74
2022/05/19 11:32:39;;;;;;;3.00;2.70;;;29.80;21.30;;;;;;10342373;28;20231;-74
2022/05/19 11:37:47;;;;;;;3.00;2.70;;;30.00;21.90;;;;;;10338677;28;20222;-75
2022/05/19 11:42:56;;;;;;;2.93;2.73;;;30.00;21.60;;;;;;10353454;28;20218;-76
2022/05/19 11:58:55;;;;;;;3.13;2.60;;;30.30;21.30;;;;;;10357819;28;20713;-76
2022/05/19 12:04:05;;;;;;;3.10;2.80;;;30.40;21.40;;;;;;10355109;28;20876;-77
2022/05/19 12:09:22;;;;;;;2.87;2.67;;;30.50;21.40;;;;;;10347163;28;20230;-76
2022/05/19 12:14:36;;;;;;;3.27;2.97;;;30.60;21.40;;;;;;10350136;28;20242;-76
2022/05/19 12:19:48;;;;;;;3.10;2.80;;;30.70;21.50;;;;;;10358939;28;20229;-77
2022/05/19 12:24:54;;;;;;;3.10;2.80;;;30.60;21.40;;;;;;10351863;28;20988;-76
2022/05/19 12:31:56;;;;;;;2.53;2.33;;;30.60;21.40;;;;;;10353199;28;20230;-76
2022/05/19 12:35:31;;;;;;;2.17;2.03;;;30.60;20.90;;;;;;10354935;28;20241;-76
2022/05/19 12:40:55;;;;;;;2.87;2.67;;;30.80;21.50;;;;;;10357805;28;20596;-76
2022/05/19 12:46:02;;;;;;;2.73;2.53;;;30.90;21.50;;;;;;10351681;28;20234;-76
2022/05/19 12:51:15;;;;;;;2.73;2.47;;;30.90;20.80;;;;;;10360656;28;20237;-76
2022/05/19 12:56:52;;;;;;;2.30;2.20;;;31.00;20.50;;;;;;10351494;28;20238;-76
2022/05/19 13:02:00;;;;;;;2.17;2.07;;;31.00;20.20;;;;;;10359654;28;20229;-76
2022/05/19 13:07:10;;;;;;;4.00;2.40;;;31.10;18.90;;;;;;10351585;28;20237;-76
2022/05/19 13:12:20;;;;;;;2.20;2.00;;;31.20;19.10;;;;;;10349297;28;20222;-76
2022/05/19 13:17:34;;;;;;;2.83;2.43;;;31.30;18.80;;;;;;10357808;28;20242;-76
2022/05/19 13:22:37;;;;;;;2.23;2.13;;;31.40;19.00;;;;;;10356065;28;20305;-76
2022/05/19 13:33:10;;;;;;;2.97;2.33;;;31.50;19.30;;;;;;10355265;28;20218;-76
2022/05/19 13:38:19;;;;;;;2.33;2.20;;;31.60;19.00;;;;;;10345604;28;20231;-77
2022/05/19 13:43:29;;;;;;;2.40;2.20;;;31.70;18.60;;;;;;10354604;28;20222;-76
2022/05/19 13:48:44;;;;;;;2.77;2.40;;;31.80;18.90;;;;;;10360774;28;20263;-76
2022/05/19 13:53:52;;;;;;;2.40;2.30;;;31.90;18.50;;;;;;10353860;28;20230;-78
2022/05/19 13:58:57;;;;;;;2.33;2.23;;;31.90;18.70;;;;;;10358153;28;20237;-77
2022/05/19 14:04:05;;;;;;;2.50;2.30;;;32.00;18.80;;;;;;10354976;28;20242;-76
2022/05/19 14:09:21;;;;;;;2.50;2.30;;;32.10;18.30;;;;;;10363295;28;20225;-76
2022/05/19 14:14:24;;;;;;;3.00;2.70;;;32.10;18.60;;;;;;10362671;28;20253;-77
2022/05/19 14:19:48;;;;;;;2.80;2.60;;;32.20;19.50;;;;;;10366147;28;20605;-76
2022/05/19 14:24:51;;;;;;;2.90;2.70;;;32.20;18.60;;;;;;10365533;28;20230;-76
2022/05/19 14:29:55;;;;;;;3.33;2.80;;;32.30;18.60;;;;;;10365370;28;20309;-76
2022/05/19 14:35:08;;;;;;;3.10;2.80;;;32.30;18.20;;;;;;10368123;28;20249;-76
2022/05/19 14:45:41;;;;;;;4.13;2.80;;;32.40;17.80;;;;;;10362515;28;20784;-76
2022/05/19 14:50:46;;;;;;;3.00;2.80;;;32.50;18.10;;;;;;10362380;28;20261;-76
2022/05/19 14:55:57;;;;;;;2.97;2.70;;;32.50;18.10;;;;;;10358345;28;20242;-76
2022/05/19 15:01:02;;;;;;;2.90;2.70;;;32.70;17.60;;;;;;10365973;28;20234;-76
2022/05/19 15:06:06;;;;;;;3.23;2.97;;;32.70;18.10;;;;;;10360713;28;20317;-76
2022/05/19 15:11:10;;;;;;;3.30;2.70;;;32.70;18.10;;;;;;10367922;28;20229;-76
2022/05/19 15:16:14;;;;;;;2.90;2.70;;;32.80;18.40;;;;;;10366947;28;20714;-75
2022/05/19 15:21:18;;;;;;;3.07;2.87;;;32.70;18.30;;;;;;10365013;28;20227;-76
2022/05/19 15:26:21;;;;;;;3.17;2.77;;;32.90;18.00;;;;;;10363469;28;20238;-76
2022/05/19 15:31:25;;;;;;;3.23;2.93;;;32.90;18.30;;;;;;10363447;28;20226;-76
2022/05/19 15:36:30;;;;;;;3.33;3.03;;;33.00;18.20;;;;;;10363014;28;20741;-76
2022/05/19 15:41:33;;;;;;;3.10;2.83;;;33.00;17.60;;;;;;10356697;28;20234;-75
2022/05/19 15:46:36;;;;;;;3.40;3.20;;;33.00;17.70;;;;;;10355350;28;20242;-76
2022/05/19 15:51:41;;;;;;;3.20;2.90;;;33.00;18.00;;;;;;10353130;28;20232;-76
2022/05/19 15:56:48;;;;;;;3.20;2.90;;;32.90;17.70;;;;;;10356160;28;20608;-79
2022/05/19 16:01:52;;;;;;;3.27;3.00;;;32.90;18.10;;;;;;10358410;28;20740;-77
2022/05/19 16:06:56;;;;;;;3.30;3.10;;;33.00;18.00;;;;;;10365877;28;20234;-78
2022/05/19 16:11:59;;;;;;;3.03;2.80;;;33.00;18.10;;;;;;10356487;28;20254;-78
2022/05/19 16:17:04;;;;;;;3.30;3.00;;;33.00;18.10;;;;;;10352194;28;20230;-76
2022/05/19 16:22:13;;;;;;;3.40;3.03;;;33.10;18.20;;;;;;10355663;28;20225;-76
2022/05/19 16:27:16;;;;;;;3.90;3.27;;;33.20;17.80;;;;;;10350007;28;20237;-76
2022/05/19 16:32:20;;;;;;;3.53;3.23;;;33.20;18.00;;;;;;10361869;28;20222;-76
2022/05/19 16:37:28;;;;;;;3.40;2.93;;;33.10;17.80;;;;;;10360803;28;20237;-76
2022/05/19 16:42:32;;;;;;;3.07;2.87;;;33.10;17.50;;;;;;10359494;28;20230;-77
2022/05/19 16:47:36;;;;;;;3.40;3.20;;;33.10;17.80;;;;;;10357229;28;20260;-76
2022/05/19 16:52:40;;;;;;;3.50;3.20;;;33.10;17.80;;;;;;10355817;28;20226;-76
2022/05/19 16:57:48;;;;;;;3.50;3.20;;;33.10;18.10;;;;;;10351992;28;20235;-76
2022/05/19 17:02:51;;;;;;;3.50;3.00;;;33.00;17.90;;;;;;10352087;28;20226;-76
2022/05/19 17:07:58;;;;;;;3.30;3.00;;;33.00;18.20;;;;;;10359381;28;20227;-76
2022/05/19 17:13:04;;;;;;;3.93;2.90;;;33.00;18.60;;;;;;10355519;28;20233;-76
2022/05/19 17:18:08;;;;;;;3.40;3.10;;;32.90;18.80;;;;;;10350564;28;20850;-76
2022/05/19 17:23:13;;;;;;;3.43;3.13;;;32.80;19.20;;;;;;10352229;28;20726;-76
2022/05/19 17:28:19;;;;;;;3.43;3.13;;;32.80;19.40;;;;;;10357797;28;20238;-76
2022/05/19 17:33:22;;;;;;;4.13;3.33;;;32.70;19.30;;;;;;10356096;28;20253;-77
2022/05/19 17:38:27;;;;;;;4.73;4.03;;;32.60;19.50;;;;;;10353588;28;20729;-76
2022/05/19 17:43:30;;;;;;;4.37;3.67;;;32.50;20.90;;;;;;10351494;28;20222;-76
2022/05/19 17:48:34;;;;;;;4.00;3.60;;;32.40;20.00;;;;;;10349298;28;20323;-76
2022/05/19 17:53:38;;;;;;;3.80;3.50;;;32.30;20.10;;;;;;10351945;28;20222;-76
2022/05/19 17:58:42;;;;;;;4.70;4.17;;;32.10;20.40;;;;;;10351111;28;20234;-76
2022/05/19 18:03:45;;;;;;;4.13;3.73;;;32.00;20.40;;;;;;10351547;28;20230;-76
2022/05/19 18:08:49;;;;;;;4.00;3.70;;;31.80;20.60;;;;;;10354818;28;20226;-76
2022/05/19 18:13:53;;;;;;;3.93;3.63;;;31.70;21.50;;;;;;10348686;28;20230;-76
2022/05/19 18:18:57;;;;;;;4.00;3.60;;;31.50;21.40;;;;;;10355196;28;20734;-75
2022/05/19 18:24:02;;;;;;;4.00;3.50;;;31.50;21.90;;;;;;10347848;28;20246;-75
2022/05/19 18:29:06;;;;;;;7.87;3.80;;;31.40;21.80;;;;;;10353168;28;20227;-75
2022/05/19 18:34:10;;;;;;;4.07;3.77;;;31.30;21.80;;;;;;10346366;28;20426;-76
2022/05/19 18:39:14;;;;;;;4.50;4.20;;;31.20;21.80;;;;;;10365325;28;20587;-76
2022/05/19 18:49:38;;;;;;;19.97;4.90;;;31.00;22.40;;;;;;10364462;28;20226;-76
2022/05/19 18:54:43;;;;;;;10.67;5.23;;;31.00;22.60;;;;;;10369701;28;20230;-76
2022/05/19 18:59:46;;;;;;;21.77;5.03;;;30.90;23.10;;;;;;10362052;28;20237;-76
2022/05/19 19:04:51;;;;;;;4.60;4.20;;;30.70;23.00;;;;;;10372269;28;20222;-83
2022/05/19 19:09:55;;;;;;;4.93;4.23;;;30.70;22.90;;;;;;10368227;28;20253;-77
2022/05/19 19:14:59;;;;;;;6.33;4.40;;;30.60;23.50;;;;;;10376481;22;20237;-74
2022/05/19 19:20:05;;;;;;;5.50;4.37;;;30.40;23.30;;;;;;10418629;28;20248;-73
2022/05/19 19:25:12;;;;;;;3.47;3.13;;;29.60;23.80;;;;;;10429016;28;20899;-72
2022/05/19 19:30:15;;;;;;;2.90;2.60;;;28.80;24.80;;;;;;10424764;28;20228;-73
2022/05/19 19:35:18;;;;;;;3.60;3.00;;;28.20;24.80;;;;;;10424483;28;20225;-73
2022/05/19 19:40:23;;;;;;;3.37;3.00;;;27.80;25.80;;;;;;10429207;28;20230;-73
2022/05/19 19:45:28;;;;;;;3.13;2.83;;;27.50;26.40;;;;;;10429057;28;20225;-73
2022/05/19 19:56:02;;;;;;;3.73;2.73;;;27.00;27.20;;;;;;10387410;28;20574;-73
2022/05/19 20:01:05;;;;;;;3.27;3.00;;;26.90;28.20;;;;;;10426297;28;20217;-72
2022/05/19 20:06:08;;;;;;;3.37;3.07;;;26.80;27.50;;;;;;10426635;28;20229;-72
2022/05/19 20:11:13;;;;;;;3.50;3.20;;;26.60;27.30;;;;;;10426049;28;20225;-72
2022/05/19 20:16:16;;;;;;;4.20;3.80;;;26.40;28.90;;;;;;10427043;28;20244;-73
2022/05/19 20:21:20;;;;;;;4.03;3.73;;;26.30;28.30;;;;;;10428014;28;22103;-73
2022/05/19 20:26:26;;;;;;;3.90;3.60;;;26.20;28.70;;;;;;10425038;28;20232;-72
2022/05/19 20:31:31;;;;;;;4.30;3.90;;;26.10;29.20;;;;;;10427137;28;20709;-72
2022/05/19 20:36:34;;;;;;;4.20;3.80;;;26.00;28.60;;;;;;10426820;28;20245;-73
2022/05/19 20:41:39;;;;;;;4.17;3.50;;;25.90;28.60;;;;;;10427619;28;20225;-72
2022/05/19 20:46:42;;;;;;;3.63;3.20;;;25.80;29.10;;;;;;10424400;28;20237;-72
2022/05/19 20:51:46;;;;;;;3.30;3.10;;;25.60;29.00;;;;;;10427312;28;20354;-72
2022/05/19 20:56:50;;;;;;;4.73;3.90;;;25.50;29.20;;;;;;10426986;28;20225;-72
2022/05/19 21:01:56;;;;;;;4.57;4.00;;;25.40;29.70;;;;;;10429775;28;20227;-72
2022/05/19 21:06:59;;;;;;;4.50;4.20;;;25.30;30.00;;;;;;10429359;28;20355;-72
2022/05/19 21:12:04;;;;;;;4.57;3.80;;;25.20;29.80;;;;;;10431536;28;20708;-72
2022/05/19 21:17:08;;;;;;;3.13;2.70;;;25.10;30.30;;;;;;10427938;28;20228;-72
2022/05/19 21:22:11;;;;;;;3.00;2.50;;;25.00;29.10;;;;;;10432586;28;20232;-72
2022/05/19 21:27:15;;;;;;;4.70;2.63;;;25.00;28.90;;;;;;10430799;28;20754;-72
2022/05/19 21:32:18;;;;;;;3.17;2.20;;;24.90;29.10;;;;;;10429521;28;20916;-73
2022/05/19 21:37:22;;;;;;;3.87;1.80;;;24.80;29.20;;;;;;10424561;28;20705;-73
2022/05/19 21:42:26;;;;;;;3.07;2.17;;;24.70;29.20;;;;;;10429484;28;20229;-73
2022/05/19 21:47:30;;;;;;;2.43;1.93;;;24.60;29.60;;;;;;10430924;28;20228;-73
2022/05/19 21:57:58;;;;;;;1.83;1.40;;;24.30;29.00;;;;;;10431425;28;20600;-73
2022/05/19 22:03:04;;;;;;;2.47;1.80;;;24.20;29.70;;;;;;10427844;28;20236;-73
2022/05/19 22:08:09;;;;;;;2.20;1.90;;;24.10;29.40;;;;;;10431167;28;20225;-73
2022/05/19 22:13:13;;;;;;;2.70;1.70;;;24.10;29.40;;;;;;10428160;28;20233;-72
2022/05/19 22:18:16;;;;;;;2.70;1.80;;;24.00;29.50;;;;;;10433073;28;20247;-72
2022/05/19 22:23:19;;;;;;;5.13;2.00;;;23.90;29.40;;;;;;10438777;28;20217;-73
2022/05/19 22:28:24;;;;;;;2.57;1.87;;;23.90;29.60;;;;;;10436977;28;20234;-73
2022/05/19 22:33:28;;;;;;;2.03;1.83;;;23.90;29.90;;;;;;10437942;28;20218;-73
2022/05/19 22:38:31;;;;;;;2.47;1.90;;;23.90;29.70;;;;;;10441224;28;20231;-73
2022/05/19 22:43:36;;;;;;;1.90;1.70;;;23.90;29.70;;;;;;10440999;28;20232;-72
2022/05/19 22:48:39;;;;;;;2.67;1.97;;;23.90;30.20;;;;;;10436919;28;20229;-72
2022/05/19 22:53:44;;;;;;;3.00;2.07;;;23.80;30.00;;;;;;10440292;28;20217;-74
2022/05/19 22:58:49;;;;;;;2.47;2.03;;;23.70;30.30;;;;;;10438487;28;20713;-75
2022/05/19 23:03:52;;;;;;;3.77;2.10;;;23.60;31.10;;;;;;10434796;28;20229;-74
2022/05/19 23:08:55;;;;;;;4.27;1.93;;;23.50;31.10;;;;;;10437273;28;20288;-75
2022/05/19 23:14:00;;;;;;;2.27;1.90;;;23.30;31.30;;;;;;10434085;28;20232;-74
2022/05/19 23:19:03;;;;;;;2.37;2.00;;;23.10;32.20;;;;;;10434340;28;20228;-73
2022/05/19 23:24:07;;;;;;;2.20;1.93;;;23.00;32.10;;;;;;10436841;28;20229;-74
2022/05/19 23:29:11;;;;;;;3.27;1.70;;;23.00;32.30;;;;;;10430947;28;20217;-69
2022/05/19 23:34:14;;;;;;;2.37;1.80;;;22.90;33.20;;;;;;10433637;28;20216;-68
2022/05/19 23:39:18;;;;;;;2.30;2.10;;;22.90;32.50;;;;;;10428069;28;20236;-69
2022/05/19 23:44:22;;;;;;;4.47;2.10;;;22.90;32.70;;;;;;10434960;28;20244;-68
2022/05/19 23:49:25;;;;;;;2.20;1.90;;;22.80;33.40;;;;;;10431725;28;20232;-68
2022/05/19 23:54:28;;;;;;;3.40;2.03;;;22.70;32.90;;;;;;10429638;28;20244;-69
2022/05/19 23:59:33;;;;;;;2.43;2.20;;;22.60;33.50;;;;;;10432030;28;20686;-69
